sensor_id;sensor_type;location;lat;lon;timestamp;P1;durP1;ratioP1;P2;durP2;ratioP2
41693;SDS011;27377;50.666;9.150;2024-03-02T00:01:59;8.48;;;5.18;;
41693;SDS011;27377;50.666;9.150;2024-03-02T00:04:44;11.35;;;5.50;;
41693;SDS011;27377;50.666;9.150;2024-03-02T00:07:28;14.23;;;7.30;;
41693;SDS011;27377;50.666;9.150;2024-03-02T00:10:15;14.80;;;6.85;;
41693;SDS011;27377;50.666;9.150;2024-03-02T00:13:03;9.50;;;6.10;;
41693;SDS011;27377;50.666;9.150;2024-03-02T00:15:48;10.98;;;6.70;;
41693;SDS011;27377;50.666;9.150;2024-03-02T00:18:42;11.27;;;6.20;;
41693;SDS011;27377;50.666;9.150;2024-03-02T00:21:26;10.05;;;6.50;;
41693;SDS011;27377;50.666;9.150;2024-03-02T00:24:17;9.80;;;6.18;;
41693;SDS011;27377;50.666;9.150;2024-03-02T00:27:08;9.88;;;6.05;;
41693;SDS011;27377;50.666;9.150;2024-03-02T00:29:59;9.35;;;5.57;;
41693;SDS011;27377;50.666;9.150;2024-03-02T00:32:44;10.32;;;6.18;;
41693;SDS011;27377;50.666;9.150;2024-03-02T00:35:28;9.65;;;6.30;;
41693;SDS011;27377;50.666;9.150;2024-03-02T00:38:12;10.55;;;6.20;;
41693;SDS011;27377;50.666;9.150;2024-03-02T00:41:00;9.00;;;6.07;;
41693;SDS011;27377;50.666;9.150;2024-03-02T00:44:00;10.93;;;6.72;;
41693;SDS011;27377;50.666;9.150;2024-03-02T00:46:45;8.07;;;5.10;;
41693;SDS011;27377;50.666;9.150;2024-03-02T00:49:29;8.35;;;5.50;;
41693;SDS011;27377;50.666;9.150;2024-03-02T00:52:13;9.60;;;6.27;;
41693;SDS011;27377;50.666;9.150;2024-03-02T00:54:57;9.90;;;6.50;;
41693;SDS011;27377;50.666;9.150;2024-03-02T00:57:42;11.75;;;7.10;;
41693;SDS011;27377;50.666;9.150;2024-03-02T01:00:28;13.57;;;8.50;;
41693;SDS011;27377;50.666;9.150;2024-03-02T01:03:12;15.95;;;10.23;;
41693;SDS011;27377;50.666;9.150;2024-03-02T01:05:56;19.60;;;11.60;;
41693;SDS011;27377;50.666;9.150;2024-03-02T01:08:40;14.75;;;8.65;;
41693;SDS011;27377;50.666;9.150;2024-03-02T01:11:25;13.50;;;7.65;;
41693;SDS011;27377;50.666;9.150;2024-03-02T01:14:09;14.82;;;8.98;;
41693;SDS011;27377;50.666;9.150;2024-03-02T01:16:53;17.70;;;10.70;;
41693;SDS011;27377;50.666;9.150;2024-03-02T01:19:37;16.20;;;10.23;;
41693;SDS011;27377;50.666;9.150;2024-03-02T01:22:23;15.70;;;9.55;;
41693;SDS011;27377;50.666;9.150;2024-03-02T01:25:09;13.40;;;8.88;;
41693;SDS011;27377;50.666;9.150;2024-03-02T01:27:54;12.55;;;7.43;;
41693;SDS011;27377;50.666;9.150;2024-03-02T01:30:38;13.68;;;9.00;;
41693;SDS011;27377;50.666;9.150;2024-03-02T01:33:22;12.88;;;7.80;;
41693;SDS011;27377;50.666;9.150;2024-03-02T01:36:06;12.55;;;7.53;;
41693;SDS011;27377;50.666;9.150;2024-03-02T01:38:52;14.30;;;8.80;;
41693;SDS011;27377;50.666;9.150;2024-03-02T01:41:36;13.05;;;8.32;;
41693;SDS011;27377;50.666;9.150;2024-03-02T01:44:20;12.23;;;8.23;;
41693;SDS011;27377;50.666;9.150;2024-03-02T01:47:04;14.40;;;8.60;;
41693;SDS011;27377;50.666;9.150;2024-03-02T01:49:48;13.70;;;8.75;;
41693;SDS011;27377;50.666;9.150;2024-03-02T01:52:33;15.32;;;9.27;;
41693;SDS011;27377;50.666;9.150;2024-03-02T01:55:17;12.67;;;9.00;;
41693;SDS011;27377;50.666;9.150;2024-03-02T01:58:01;14.60;;;9.32;;
41693;SDS011;27377;50.666;9.150;2024-03-02T02:00:45;14.13;;;9.05;;
41693;SDS011;27377;50.666;9.150;2024-03-02T02:03:29;15.88;;;9.57;;
41693;SDS011;27377;50.666;9.150;2024-03-02T02:06:13;14.25;;;8.55;;
41693;SDS011;27377;50.666;9.150;2024-03-02T02:08:58;9.40;;;6.00;;
41693;SDS011;27377;50.666;9.150;2024-03-02T02:11:42;8.95;;;6.18;;
41693;SDS011;27377;50.666;9.150;2024-03-02T02:14:26;10.53;;;6.80;;
41693;SDS011;27377;50.666;9.150;2024-03-02T02:17:10;12.90;;;7.93;;
41693;SDS011;27377;50.666;9.150;2024-03-02T02:19:54;12.53;;;8.30;;
41693;SDS011;27377;50.666;9.150;2024-03-02T02:22:38;10.02;;;6.65;;
41693;SDS011;27377;50.666;9.150;2024-03-02T02:25:22;9.97;;;6.17;;
41693;SDS011;27377;50.666;9.150;2024-03-02T02:28:06;10.95;;;6.82;;
41693;SDS011;27377;50.666;9.150;2024-03-02T02:30:50;13.65;;;8.68;;
41693;SDS011;27377;50.666;9.150;2024-03-02T02:33:34;13.15;;;8.52;;
41693;SDS011;27377;50.666;9.150;2024-03-02T02:36:22;13.35;;;8.63;;
41693;SDS011;27377;50.666;9.150;2024-03-02T02:39:06;13.63;;;8.90;;
41693;SDS011;27377;50.666;9.150;2024-03-02T02:41:54;11.07;;;7.47;;
41693;SDS011;27377;50.666;9.150;2024-03-02T02:44:38;12.10;;;8.32;;
41693;SDS011;27377;50.666;9.150;2024-03-02T02:47:22;13.35;;;9.07;;
41693;SDS011;27377;50.666;9.150;2024-03-02T02:50:07;13.05;;;8.68;;
41693;SDS011;27377;50.666;9.150;2024-03-02T02:52:51;12.82;;;8.60;;
41693;SDS011;27377;50.666;9.150;2024-03-02T02:55:35;12.65;;;8.50;;
41693;SDS011;27377;50.666;9.150;2024-03-02T02:58:23;14.18;;;9.23;;
41693;SDS011;27377;50.666;9.150;2024-03-02T03:01:08;15.15;;;8.93;;
41693;SDS011;27377;50.666;9.150;2024-03-02T03:03:52;13.15;;;8.80;;
41693;SDS011;27377;50.666;9.150;2024-03-02T03:06:36;15.55;;;9.45;;
41693;SDS011;27377;50.666;9.150;2024-03-02T03:09:20;15.57;;;9.63;;
41693;SDS011;27377;50.666;9.150;2024-03-02T03:12:04;12.05;;;7.70;;
41693;SDS011;27377;50.666;9.150;2024-03-02T03:14:48;14.43;;;9.13;;
41693;SDS011;27377;50.666;9.150;2024-03-02T03:17:32;12.70;;;8.23;;
41693;SDS011;27377;50.666;9.150;2024-03-02T03:20:17;11.82;;;7.38;;
41693;SDS011;27377;50.666;9.150;2024-03-02T03:23:00;14.32;;;9.05;;
41693;SDS011;27377;50.666;9.150;2024-03-02T03:25:45;16.80;;;10.10;;
41693;SDS011;27377;50.666;9.150;2024-03-02T03:28:29;17.00;;;11.02;;
41693;SDS011;27377;50.666;9.150;2024-03-02T03:31:13;16.45;;;9.88;;
41693;SDS011;27377;50.666;9.150;2024-03-02T03:33:57;15.02;;;9.52;;
41693;SDS011;27377;50.666;9.150;2024-03-02T03:36:42;15.63;;;10.13;;
41693;SDS011;27377;50.666;9.150;2024-03-02T03:39:26;15.75;;;10.52;;
41693;SDS011;27377;50.666;9.150;2024-03-02T03:42:12;16.73;;;10.77;;
41693;SDS011;27377;50.666;9.150;2024-03-02T03:44:56;16.65;;;10.02;;
41693;SDS011;27377;50.666;9.150;2024-03-02T03:47:40;14.60;;;8.40;;
41693;SDS011;27377;50.666;9.150;2024-03-02T03:50:24;11.18;;;7.20;;
41693;SDS011;27377;50.666;9.150;2024-03-02T03:53:08;18.08;;;10.75;;
41693;SDS011;27377;50.666;9.150;2024-03-02T03:55:52;24.92;;;13.30;;
41693;SDS011;27377;50.666;9.150;2024-03-02T03:58:36;29.77;;;14.95;;
41693;SDS011;27377;50.666;9.150;2024-03-02T04:01:22;32.88;;;17.15;;
41693;SDS011;27377;50.666;9.150;2024-03-02T04:04:07;33.88;;;16.90;;
41693;SDS011;27377;50.666;9.150;2024-03-02T04:06:51;29.65;;;15.95;;
41693;SDS011;27377;50.666;9.150;2024-03-02T04:09:35;34.67;;;17.10;;
41693;SDS011;27377;50.666;9.150;2024-03-02T04:12:19;29.55;;;15.98;;
41693;SDS011;27377;50.666;9.150;2024-03-02T04:15:06;26.23;;;14.63;;
41693;SDS011;27377;50.666;9.150;2024-03-02T04:17:54;30.88;;;16.40;;
41693;SDS011;27377;50.666;9.150;2024-03-02T04:20:42;38.47;;;20.42;;
41693;SDS011;27377;50.666;9.150;2024-03-02T04:23:26;33.63;;;17.48;;
41693;SDS011;27377;50.666;9.150;2024-03-02T04:26:11;32.00;;;16.15;;
41693;SDS011;27377;50.666;9.150;2024-03-02T04:28:55;16.95;;;10.05;;
41693;SDS011;27377;50.666;9.150;2024-03-02T04:31:42;20.67;;;11.57;;
41693;SDS011;27377;50.666;9.150;2024-03-02T04:34:26;23.48;;;12.98;;
41693;SDS011;27377;50.666;9.150;2024-03-02T04:37:14;20.33;;;11.73;;
41693;SDS011;27377;50.666;9.150;2024-03-02T04:39:59;19.10;;;11.60;;
41693;SDS011;27377;50.666;9.150;2024-03-02T04:42:46;20.63;;;11.67;;
41693;SDS011;27377;50.666;9.150;2024-03-02T04:45:30;20.30;;;11.43;;
41693;SDS011;27377;50.666;9.150;2024-03-02T04:48:22;20.85;;;11.88;;
41693;SDS011;27377;50.666;9.150;2024-03-02T04:51:06;20.27;;;12.23;;
41693;SDS011;27377;50.666;9.150;2024-03-02T04:53:50;28.33;;;15.48;;
41693;SDS011;27377;50.666;9.150;2024-03-02T04:56:34;33.50;;;18.40;;
41693;SDS011;27377;50.666;9.150;2024-03-02T04:59:28;36.67;;;19.20;;
41693;SDS011;27377;50.666;9.150;2024-03-02T05:02:12;37.80;;;20.13;;
41693;SDS011;27377;50.666;9.150;2024-03-02T05:04:57;35.85;;;19.75;;
41693;SDS011;27377;50.666;9.150;2024-03-02T05:07:42;31.63;;;17.60;;
41693;SDS011;27377;50.666;9.150;2024-03-02T05:10:29;30.50;;;17.50;;
41693;SDS011;27377;50.666;9.150;2024-03-02T05:13:13;34.00;;;19.42;;
41693;SDS011;27377;50.666;9.150;2024-03-02T05:15:57;31.33;;;19.43;;
41693;SDS011;27377;50.666;9.150;2024-03-02T05:18:42;29.90;;;18.17;;
41693;SDS011;27377;50.666;9.150;2024-03-02T05:21:35;25.75;;;15.68;;
41693;SDS011;27377;50.666;9.150;2024-03-02T05:24:20;24.70;;;15.02;;
41693;SDS011;27377;50.666;9.150;2024-03-02T05:27:12;22.13;;;13.80;;
41693;SDS011;27377;50.666;9.150;2024-03-02T05:30:00;20.55;;;12.68;;
41693;SDS011;27377;50.666;9.150;2024-03-02T05:32:44;19.60;;;12.07;;
41693;SDS011;27377;50.666;9.150;2024-03-02T05:35:31;17.98;;;11.27;;
41693;SDS011;27377;50.666;9.150;2024-03-02T05:38:16;19.40;;;11.75;;
41693;SDS011;27377;50.666;9.150;2024-03-02T05:41:21;16.40;;;10.75;;
41693;SDS011;27377;50.666;9.150;2024-03-02T05:44:05;17.30;;;10.90;;
41693;SDS011;27377;50.666;9.150;2024-03-02T05:46:49;14.88;;;9.40;;
41693;SDS011;27377;50.666;9.150;2024-03-02T05:49:33;15.55;;;9.80;;
41693;SDS011;27377;50.666;9.150;2024-03-02T05:52:17;15.38;;;9.60;;
41693;SDS011;27377;50.666;9.150;2024-03-02T05:55:04;16.85;;;10.25;;
41693;SDS011;27377;50.666;9.150;2024-03-02T05:57:50;17.38;;;11.00;;
41693;SDS011;27377;50.666;9.150;2024-03-02T06:00:49;18.17;;;11.48;;
41693;SDS011;27377;50.666;9.150;2024-03-02T06:03:33;18.10;;;11.35;;
41693;SDS011;27377;50.666;9.150;2024-03-02T06:06:18;18.85;;;11.32;;
41693;SDS011;27377;50.666;9.150;2024-03-02T06:09:06;18.27;;;11.35;;
41693;SDS011;27377;50.666;9.150;2024-03-02T06:11:56;17.35;;;10.88;;
41693;SDS011;27377;50.666;9.150;2024-03-02T06:14:40;16.60;;;10.85;;
41693;SDS011;27377;50.666;9.150;2024-03-02T06:17:24;15.68;;;9.82;;
41693;SDS011;27377;50.666;9.150;2024-03-02T06:20:12;15.37;;;10.17;;
41693;SDS011;27377;50.666;9.150;2024-03-02T06:22:56;14.00;;;8.75;;
41693;SDS011;27377;50.666;9.150;2024-03-02T06:25:40;15.10;;;8.82;;
41693;SDS011;27377;50.666;9.150;2024-03-02T06:28:24;14.73;;;9.02;;
41693;SDS011;27377;50.666;9.150;2024-03-02T06:31:09;16.20;;;9.52;;
41693;SDS011;27377;50.666;9.150;2024-03-02T06:33:53;14.38;;;9.15;;
41693;SDS011;27377;50.666;9.150;2024-03-02T06:36:38;16.02;;;10.70;;
41693;SDS011;27377;50.666;9.150;2024-03-02T06:39:23;14.80;;;9.57;;
41693;SDS011;27377;50.666;9.150;2024-03-02T06:42:07;13.02;;;8.23;;
41693;SDS011;27377;50.666;9.150;2024-03-02T06:44:51;10.40;;;6.75;;
41693;SDS011;27377;50.666;9.150;2024-03-02T06:47:35;11.87;;;7.53;;
41693;SDS011;27377;50.666;9.150;2024-03-02T06:50:19;13.00;;;7.60;;
41693;SDS011;27377;50.666;9.150;2024-03-02T06:53:03;13.38;;;8.52;;
41693;SDS011;27377;50.666;9.150;2024-03-02T06:55:47;14.60;;;9.38;;
41693;SDS011;27377;50.666;9.150;2024-03-02T06:58:31;16.55;;;10.27;;
41693;SDS011;27377;50.666;9.150;2024-03-02T07:01:15;15.00;;;9.60;;
41693;SDS011;27377;50.666;9.150;2024-03-02T07:03:59;15.35;;;8.95;;
41693;SDS011;27377;50.666;9.150;2024-03-02T07:06:43;14.68;;;9.10;;
41693;SDS011;27377;50.666;9.150;2024-03-02T07:09:27;14.77;;;9.02;;
41693;SDS011;27377;50.666;9.150;2024-03-02T07:12:12;12.77;;;8.35;;
41693;SDS011;27377;50.666;9.150;2024-03-02T07:14:56;13.95;;;8.98;;
41693;SDS011;27377;50.666;9.150;2024-03-02T07:17:40;14.27;;;9.32;;
41693;SDS011;27377;50.666;9.150;2024-03-02T07:20:24;14.13;;;8.55;;
41693;SDS011;27377;50.666;9.150;2024-03-02T07:23:08;15.15;;;9.55;;
41693;SDS011;27377;50.666;9.150;2024-03-02T07:25:53;13.45;;;8.85;;
41693;SDS011;27377;50.666;9.150;2024-03-02T07:28:39;16.35;;;9.73;;
41693;SDS011;27377;50.666;9.150;2024-03-02T07:31:24;13.82;;;8.85;;
41693;SDS011;27377;50.666;9.150;2024-03-02T07:34:08;14.17;;;9.37;;
41693;SDS011;27377;50.666;9.150;2024-03-02T07:36:52;14.50;;;9.75;;
41693;SDS011;27377;50.666;9.150;2024-03-02T07:39:37;14.43;;;9.23;;
41693;SDS011;27377;50.666;9.150;2024-03-02T07:42:21;13.63;;;9.27;;
41693;SDS011;27377;50.666;9.150;2024-03-02T07:45:05;14.90;;;9.30;;
41693;SDS011;27377;50.666;9.150;2024-03-02T07:47:50;14.80;;;9.02;;
41693;SDS011;27377;50.666;9.150;2024-03-02T07:50:34;15.05;;;10.02;;
41693;SDS011;27377;50.666;9.150;2024-03-02T07:53:18;16.48;;;9.73;;
41693;SDS011;27377;50.666;9.150;2024-03-02T07:56:02;14.07;;;8.98;;
41693;SDS011;27377;50.666;9.150;2024-03-02T07:58:47;15.30;;;9.38;;
41693;SDS011;27377;50.666;9.150;2024-03-02T08:01:35;13.70;;;8.90;;
41693;SDS011;27377;50.666;9.150;2024-03-02T08:04:19;14.05;;;9.10;;
41693;SDS011;27377;50.666;9.150;2024-03-02T08:07:04;13.95;;;8.77;;
41693;SDS011;27377;50.666;9.150;2024-03-02T08:09:49;12.75;;;8.40;;
41693;SDS011;27377;50.666;9.150;2024-03-02T08:12:33;12.93;;;8.57;;
41693;SDS011;27377;50.666;9.150;2024-03-02T08:15:17;12.57;;;7.90;;
41693;SDS011;27377;50.666;9.150;2024-03-02T08:18:01;12.30;;;8.18;;
41693;SDS011;27377;50.666;9.150;2024-03-02T08:23:21;13.17;;;8.27;;
41693;SDS011;27377;50.666;9.150;2024-03-02T08:26:05;12.60;;;8.18;;
41693;SDS011;27377;50.666;9.150;2024-03-02T08:28:49;13.25;;;8.93;;
41693;SDS011;27377;50.666;9.150;2024-03-02T08:31:33;12.77;;;8.40;;
41693;SDS011;27377;50.666;9.150;2024-03-02T08:34:17;14.00;;;8.40;;
41693;SDS011;27377;50.666;9.150;2024-03-02T08:37:02;12.73;;;8.10;;
41693;SDS011;27377;50.666;9.150;2024-03-02T08:39:46;12.60;;;7.65;;
41693;SDS011;27377;50.666;9.150;2024-03-02T08:42:30;11.05;;;7.32;;
41693;SDS011;27377;50.666;9.150;2024-03-02T08:45:14;12.43;;;7.88;;
41693;SDS011;27377;50.666;9.150;2024-03-02T08:47:59;12.82;;;8.48;;
41693;SDS011;27377;50.666;9.150;2024-03-02T08:50:43;11.60;;;7.90;;
41693;SDS011;27377;50.666;9.150;2024-03-02T08:53:27;12.63;;;8.40;;
41693;SDS011;27377;50.666;9.150;2024-03-02T08:56:11;14.10;;;8.88;;
41693;SDS011;27377;50.666;9.150;2024-03-02T08:58:56;12.20;;;7.85;;
41693;SDS011;27377;50.666;9.150;2024-03-02T09:01:40;14.23;;;8.93;;
41693;SDS011;27377;50.666;9.150;2024-03-02T09:04:25;12.15;;;8.23;;
41693;SDS011;27377;50.666;9.150;2024-03-02T09:07:09;13.65;;;8.23;;
41693;SDS011;27377;50.666;9.150;2024-03-02T09:09:53;13.75;;;8.23;;
41693;SDS011;27377;50.666;9.150;2024-03-02T09:12:37;12.95;;;8.27;;
41693;SDS011;27377;50.666;9.150;2024-03-02T09:15:22;13.50;;;8.65;;
41693;SDS011;27377;50.666;9.150;2024-03-02T09:18:06;16.90;;;11.00;;
41693;SDS011;27377;50.666;9.150;2024-03-02T09:20:50;21.08;;;13.68;;
41693;SDS011;27377;50.666;9.150;2024-03-02T09:23:34;18.13;;;11.53;;
41693;SDS011;27377;50.666;9.150;2024-03-02T09:26:18;14.63;;;9.47;;
41693;SDS011;27377;50.666;9.150;2024-03-02T09:29:04;12.43;;;8.25;;
41693;SDS011;27377;50.666;9.150;2024-03-02T09:31:48;10.60;;;6.88;;
41693;SDS011;27377;50.666;9.150;2024-03-02T09:34:35;8.65;;;5.63;;
41693;SDS011;27377;50.666;9.150;2024-03-02T09:37:19;7.78;;;4.80;;
41693;SDS011;27377;50.666;9.150;2024-03-02T09:40:03;6.50;;;4.30;;
41693;SDS011;27377;50.666;9.150;2024-03-02T09:42:48;6.63;;;4.40;;
41693;SDS011;27377;50.666;9.150;2024-03-02T09:45:36;7.70;;;4.10;;
41693;SDS011;27377;50.666;9.150;2024-03-02T09:48:20;5.67;;;3.43;;
41693;SDS011;27377;50.666;9.150;2024-03-02T09:51:04;5.45;;;3.58;;
41693;SDS011;27377;50.666;9.150;2024-03-02T09:53:48;5.65;;;3.38;;
41693;SDS011;27377;50.666;9.150;2024-03-02T09:56:33;5.90;;;3.53;;
41693;SDS011;27377;50.666;9.150;2024-03-02T09:59:17;5.88;;;3.30;;
41693;SDS011;27377;50.666;9.150;2024-03-02T10:02:03;5.90;;;3.20;;
41693;SDS011;27377;50.666;9.150;2024-03-02T10:04:50;6.00;;;3.30;;
41693;SDS011;27377;50.666;9.150;2024-03-02T10:07:34;5.57;;;3.30;;
41693;SDS011;27377;50.666;9.150;2024-03-02T10:10:18;6.07;;;3.05;;
41693;SDS011;27377;50.666;9.150;2024-03-02T10:13:03;5.55;;;3.40;;
41693;SDS011;27377;50.666;9.150;2024-03-02T10:15:49;5.80;;;3.30;;
41693;SDS011;27377;50.666;9.150;2024-03-02T10:18:33;6.05;;;3.30;;
41693;SDS011;27377;50.666;9.150;2024-03-02T10:21:17;6.03;;;3.77;;
41693;SDS011;27377;50.666;9.150;2024-03-02T10:24:10;5.43;;;3.53;;
41693;SDS011;27377;50.666;9.150;2024-03-02T10:26:56;6.57;;;3.60;;
41693;SDS011;27377;50.666;9.150;2024-03-02T10:29:40;4.85;;;3.30;;
41693;SDS011;27377;50.666;9.150;2024-03-02T10:32:24;5.43;;;3.05;;
41693;SDS011;27377;50.666;9.150;2024-03-02T10:35:08;5.03;;;3.00;;
41693;SDS011;27377;50.666;9.150;2024-03-02T10:37:52;5.03;;;3.10;;
41693;SDS011;27377;50.666;9.150;2024-03-02T10:40:37;5.82;;;2.88;;
41693;SDS011;27377;50.666;9.150;2024-03-02T10:43:21;4.93;;;2.60;;
41693;SDS011;27377;50.666;9.150;2024-03-02T10:46:05;5.97;;;3.17;;
41693;SDS011;27377;50.666;9.150;2024-03-02T10:48:49;5.53;;;2.90;;
41693;SDS011;27377;50.666;9.150;2024-03-02T10:51:33;5.22;;;3.00;;
41693;SDS011;27377;50.666;9.150;2024-03-02T10:54:19;4.47;;;2.72;;
41693;SDS011;27377;50.666;9.150;2024-03-02T10:57:09;4.72;;;2.75;;
41693;SDS011;27377;50.666;9.150;2024-03-02T10:59:57;5.63;;;2.85;;
41693;SDS011;27377;50.666;9.150;2024-03-02T11:02:47;5.10;;;2.77;;
41693;SDS011;27377;50.666;9.150;2024-03-02T11:05:41;4.97;;;2.67;;
41693;SDS011;27377;50.666;9.150;2024-03-02T11:08:29;5.65;;;2.88;;
41693;SDS011;27377;50.666;9.150;2024-03-02T11:11:15;4.23;;;2.43;;
41693;SDS011;27377;50.666;9.150;2024-03-02T11:14:02;4.90;;;2.80;;
41693;SDS011;27377;50.666;9.150;2024-03-02T11:16:51;4.38;;;2.53;;
41693;SDS011;27377;50.666;9.150;2024-03-02T11:19:37;4.88;;;2.58;;
41693;SDS011;27377;50.666;9.150;2024-03-02T11:22:22;4.65;;;2.70;;
41693;SDS011;27377;50.666;9.150;2024-03-02T11:25:22;4.85;;;2.78;;
41693;SDS011;27377;50.666;9.150;2024-03-02T11:28:07;4.43;;;2.70;;
41693;SDS011;27377;50.666;9.150;2024-03-02T11:30:53;4.90;;;2.88;;
41693;SDS011;27377;50.666;9.150;2024-03-02T11:33:37;4.97;;;2.67;;
41693;SDS011;27377;50.666;9.150;2024-03-02T11:36:21;4.53;;;2.67;;
41693;SDS011;27377;50.666;9.150;2024-03-02T11:39:05;4.83;;;2.77;;
41693;SDS011;27377;50.666;9.150;2024-03-02T11:41:49;5.57;;;2.80;;
41693;SDS011;27377;50.666;9.150;2024-03-02T11:44:33;6.10;;;3.00;;
41693;SDS011;27377;50.666;9.150;2024-03-02T11:47:18;5.45;;;3.10;;
41693;SDS011;27377;50.666;9.150;2024-03-02T11:50:02;5.35;;;3.15;;
41693;SDS011;27377;50.666;9.150;2024-03-02T11:52:50;6.60;;;3.47;;
41693;SDS011;27377;50.666;9.150;2024-03-02T11:55:36;5.28;;;3.10;;
41693;SDS011;27377;50.666;9.150;2024-03-02T11:58:20;5.63;;;3.50;;
41693;SDS011;27377;50.666;9.150;2024-03-02T12:01:07;5.30;;;3.20;;
41693;SDS011;27377;50.666;9.150;2024-03-02T12:03:51;4.97;;;2.97;;
41693;SDS011;27377;50.666;9.150;2024-03-02T12:06:38;5.55;;;2.75;;
41693;SDS011;27377;50.666;9.150;2024-03-02T12:09:22;3.90;;;2.15;;
41693;SDS011;27377;50.666;9.150;2024-03-02T12:12:07;4.50;;;2.17;;
41693;SDS011;27377;50.666;9.150;2024-03-02T12:14:53;3.87;;;2.20;;
41693;SDS011;27377;50.666;9.150;2024-03-02T12:17:39;4.38;;;2.20;;
41693;SDS011;27377;50.666;9.150;2024-03-02T12:20:23;4.50;;;2.17;;
41693;SDS011;27377;50.666;9.150;2024-03-02T12:23:09;4.77;;;2.23;;
41693;SDS011;27377;50.666;9.150;2024-03-02T12:25:53;4.17;;;2.00;;
41693;SDS011;27377;50.666;9.150;2024-03-02T12:28:38;4.80;;;2.15;;
41693;SDS011;27377;50.666;9.150;2024-03-02T12:31:22;3.70;;;2.10;;
41693;SDS011;27377;50.666;9.150;2024-03-02T12:34:07;3.83;;;2.10;;
41693;SDS011;27377;50.666;9.150;2024-03-02T12:36:51;4.05;;;2.08;;
41693;SDS011;27377;50.666;9.150;2024-03-02T12:39:36;3.13;;;1.80;;
41693;SDS011;27377;50.666;9.150;2024-03-02T12:42:20;5.00;;;1.98;;
41693;SDS011;27377;50.666;9.150;2024-03-02T12:45:05;3.57;;;1.70;;
41693;SDS011;27377;50.666;9.150;2024-03-02T12:47:50;3.63;;;2.00;;
41693;SDS011;27377;50.666;9.150;2024-03-02T12:50:37;3.70;;;2.05;;
41693;SDS011;27377;50.666;9.150;2024-03-02T12:53:21;4.55;;;2.00;;
41693;SDS011;27377;50.666;9.150;2024-03-02T12:56:05;4.10;;;1.93;;
41693;SDS011;27377;50.666;9.150;2024-03-02T12:58:55;3.17;;;1.77;;
41693;SDS011;27377;50.666;9.150;2024-03-02T13:01:49;4.18;;;1.92;;
41693;SDS011;27377;50.666;9.150;2024-03-02T13:04:37;3.92;;;1.85;;
41693;SDS011;27377;50.666;9.150;2024-03-02T13:07:22;3.25;;;1.85;;
41693;SDS011;27377;50.666;9.150;2024-03-02T13:10:08;3.93;;;1.60;;
41693;SDS011;27377;50.666;9.150;2024-03-02T13:12:53;3.37;;;1.57;;
41693;SDS011;27377;50.666;9.150;2024-03-02T13:15:37;3.75;;;1.90;;
41693;SDS011;27377;50.666;9.150;2024-03-02T13:18:22;3.42;;;1.90;;
41693;SDS011;27377;50.666;9.150;2024-03-02T13:21:07;4.20;;;2.28;;
41693;SDS011;27377;50.666;9.150;2024-03-02T13:23:52;4.68;;;2.30;;
41693;SDS011;27377;50.666;9.150;2024-03-02T13:26:36;5.00;;;2.80;;
41693;SDS011;27377;50.666;9.150;2024-03-02T13:29:20;4.93;;;2.80;;
41693;SDS011;27377;50.666;9.150;2024-03-02T13:32:04;5.83;;;2.70;;
41693;SDS011;27377;50.666;9.150;2024-03-02T13:34:48;6.18;;;3.20;;
41693;SDS011;27377;50.666;9.150;2024-03-02T13:37:33;5.13;;;3.05;;
41693;SDS011;27377;50.666;9.150;2024-03-02T13:40:17;6.13;;;3.55;;
41693;SDS011;27377;50.666;9.150;2024-03-02T13:43:03;5.93;;;3.40;;
41693;SDS011;27377;50.666;9.150;2024-03-02T13:45:47;4.78;;;3.03;;
41693;SDS011;27377;50.666;9.150;2024-03-02T13:48:32;4.82;;;2.78;;
41693;SDS011;27377;50.666;9.150;2024-03-02T13:51:16;4.90;;;2.83;;
41693;SDS011;27377;50.666;9.150;2024-03-02T13:54:00;4.90;;;2.90;;
41693;SDS011;27377;50.666;9.150;2024-03-02T13:56:46;4.85;;;2.70;;
41693;SDS011;27377;50.666;9.150;2024-03-02T13:59:31;4.57;;;2.60;;
41693;SDS011;27377;50.666;9.150;2024-03-02T14:02:15;4.75;;;2.60;;
41693;SDS011;27377;50.666;9.150;2024-03-02T14:04:59;4.00;;;2.20;;
41693;SDS011;27377;50.666;9.150;2024-03-02T14:07:43;4.88;;;2.60;;
41693;SDS011;27377;50.666;9.150;2024-03-02T14:10:28;5.30;;;2.70;;
41693;SDS011;27377;50.666;9.150;2024-03-02T14:13:12;4.65;;;2.55;;
41693;SDS011;27377;50.666;9.150;2024-03-02T14:15:57;4.63;;;2.55;;
41693;SDS011;27377;50.666;9.150;2024-03-02T14:18:41;5.22;;;2.50;;
41693;SDS011;27377;50.666;9.150;2024-03-02T14:21:32;4.37;;;2.70;;
41693;SDS011;27377;50.666;9.150;2024-03-02T14:24:16;6.63;;;2.83;;
41693;SDS011;27377;50.666;9.150;2024-03-02T14:27:00;5.40;;;2.50;;
41693;SDS011;27377;50.666;9.150;2024-03-02T14:29:48;4.13;;;2.40;;
41693;SDS011;27377;50.666;9.150;2024-03-02T14:32:32;4.37;;;2.40;;
41693;SDS011;27377;50.666;9.150;2024-03-02T14:35:16;4.82;;;2.70;;
41693;SDS011;27377;50.666;9.150;2024-03-02T14:38:00;4.80;;;2.70;;
41693;SDS011;27377;50.666;9.150;2024-03-02T14:40:45;4.15;;;2.40;;
41693;SDS011;27377;50.666;9.150;2024-03-02T14:43:29;4.38;;;2.50;;
41693;SDS011;27377;50.666;9.150;2024-03-02T14:46:14;4.78;;;2.78;;
41693;SDS011;27377;50.666;9.150;2024-03-02T14:49:00;6.27;;;3.23;;
41693;SDS011;27377;50.666;9.150;2024-03-02T14:51:44;5.05;;;2.90;;
41693;SDS011;27377;50.666;9.150;2024-03-02T14:54:29;5.60;;;2.80;;
41693;SDS011;27377;50.666;9.150;2024-03-02T14:57:13;4.85;;;2.97;;
41693;SDS011;27377;50.666;9.150;2024-03-02T14:59:57;4.72;;;3.03;;
41693;SDS011;27377;50.666;9.150;2024-03-02T15:02:41;5.13;;;3.03;;
41693;SDS011;27377;50.666;9.150;2024-03-02T15:05:26;6.68;;;3.22;;
41693;SDS011;27377;50.666;9.150;2024-03-02T15:08:10;4.32;;;2.60;;
41693;SDS011;27377;50.666;9.150;2024-03-02T15:10:58;4.22;;;2.50;;
41693;SDS011;27377;50.666;9.150;2024-03-02T15:13:44;4.35;;;2.38;;
41693;SDS011;27377;50.666;9.150;2024-03-02T15:16:28;4.25;;;2.30;;
41693;SDS011;27377;50.666;9.150;2024-03-02T15:19:12;4.82;;;2.53;;
41693;SDS011;27377;50.666;9.150;2024-03-02T15:21:57;4.78;;;2.30;;
41693;SDS011;27377;50.666;9.150;2024-03-02T15:24:41;4.65;;;2.53;;
41693;SDS011;27377;50.666;9.150;2024-03-02T15:27:25;4.50;;;2.35;;
41693;SDS011;27377;50.666;9.150;2024-03-02T15:30:11;5.00;;;2.40;;
41693;SDS011;27377;50.666;9.150;2024-03-02T15:32:55;4.03;;;2.50;;
41693;SDS011;27377;50.666;9.150;2024-03-02T15:35:39;4.97;;;2.70;;
41693;SDS011;27377;50.666;9.150;2024-03-02T15:38:23;4.30;;;2.40;;
41693;SDS011;27377;50.666;9.150;2024-03-02T15:41:07;4.60;;;2.70;;
41693;SDS011;27377;50.666;9.150;2024-03-02T15:43:51;5.13;;;2.83;;
41693;SDS011;27377;50.666;9.150;2024-03-02T15:46:36;4.50;;;2.70;;
41693;SDS011;27377;50.666;9.150;2024-03-02T15:49:24;4.03;;;2.40;;
41693;SDS011;27377;50.666;9.150;2024-03-02T15:52:09;4.75;;;2.50;;
41693;SDS011;27377;50.666;9.150;2024-03-02T15:54:53;4.25;;;2.30;;
41693;SDS011;27377;50.666;9.150;2024-03-02T15:57:37;4.17;;;2.40;;
41693;SDS011;27377;50.666;9.150;2024-03-02T16:00:29;3.72;;;2.33;;
41693;SDS011;27377;50.666;9.150;2024-03-02T16:03:14;4.20;;;2.50;;
41693;SDS011;27377;50.666;9.150;2024-03-02T16:05:58;4.40;;;2.38;;
41693;SDS011;27377;50.666;9.150;2024-03-02T16:08:42;5.45;;;2.40;;
41693;SDS011;27377;50.666;9.150;2024-03-02T16:11:27;4.93;;;2.65;;
41693;SDS011;27377;50.666;9.150;2024-03-02T16:14:13;5.05;;;2.60;;
41693;SDS011;27377;50.666;9.150;2024-03-02T16:16:58;4.57;;;2.53;;
41693;SDS011;27377;50.666;9.150;2024-03-02T16:19:43;4.15;;;2.40;;
41693;SDS011;27377;50.666;9.150;2024-03-02T16:22:27;4.23;;;2.50;;
41693;SDS011;27377;50.666;9.150;2024-03-02T16:25:11;4.47;;;2.80;;
41693;SDS011;27377;50.666;9.150;2024-03-02T16:27:55;4.55;;;2.72;;